DLH9PZ EDDM-EDDF
Flight info
| Callsign | DLH9PZ |
|---|---|
| Flight time | 0h 37m |
| Altitude | 24000 |
| Route | GIVMI1N GIVMI Y101 ERNAS T161 DEBHI DEBHI1B |
| Aircraft | A320/M-SDE3FGHIRWY/LB1 |
Departure
| Time | 2026-04-19 06:12 |
|---|---|
| Airport | Munich Airport (EDDM) |
Arrival
| Time | 2026-04-19 06:50 |
|---|---|
| Airport | Frankfurt Main Airport (EDDF) |
| Time | Latitude | Longitude | Altitude | Speed | Heading |
|---|---|---|---|---|---|
| 2026-04-19 05:40 | 48.35643 | 11.79274 | 1473 ft | 0 kts | 263° |
| 2026-04-19 06:03 | 48.35646 | 11.79307 | 1482 ft | 4 kts | 263° |
| 2026-04-19 06:04 | 48.35649 | 11.79347 | 1475 ft | 3 kts | 263° |
| 2026-04-19 06:04 | 48.35650 | 11.79379 | 1477 ft | 4 kts | 280° |
| 2026-04-19 06:04 | 48.35640 | 11.79413 | 1473 ft | 4 kts | 323° |
| 2026-04-19 06:04 | 48.35618 | 11.79426 | 1481 ft | 4 kts | 353° |
| 2026-04-19 06:05 | 48.35606 | 11.79428 | 1474 ft | 0 kts | 353° |
| 2026-04-19 06:06 | 48.35634 | 11.79423 | 1474 ft | 10 kts | 353° |
| 2026-04-19 06:07 | 48.35695 | 11.79413 | 1481 ft | 8 kts | 354° |
| 2026-04-19 06:07 | 48.35747 | 11.79405 | 1485 ft | 9 kts | 353° |
| 2026-04-19 06:07 | 48.35824 | 11.79391 | 1483 ft | 11 kts | 353° |
| 2026-04-19 06:07 | 48.35896 | 11.79423 | 1477 ft | 15 kts | 55° |
| 2026-04-19 06:08 | 48.35966 | 11.79501 | 1472 ft | 13 kts | 356° |
| 2026-04-19 06:08 | 48.36047 | 11.79488 | 1484 ft | 11 kts | 354° |
| 2026-04-19 06:08 | 48.36110 | 11.79540 | 1485 ft | 14 kts | 74° |
| 2026-04-19 06:08 | 48.36126 | 11.79742 | 1485 ft | 21 kts | 83° |
| 2026-04-19 06:09 | 48.36142 | 11.79957 | 1478 ft | 21 kts | 84° |
| 2026-04-19 06:09 | 48.36158 | 11.80174 | 1485 ft | 21 kts | 83° |
| 2026-04-19 06:09 | 48.36175 | 11.80391 | 1480 ft | 21 kts | 83° |
| 2026-04-19 06:09 | 48.36193 | 11.80610 | 1479 ft | 21 kts | 83° |
| 2026-04-19 06:10 | 48.36210 | 11.80835 | 1476 ft | 22 kts | 83° |
| 2026-04-19 06:10 | 48.36228 | 11.81064 | 1485 ft | 21 kts | 83° |
| 2026-04-19 06:10 | 48.36240 | 11.81226 | 1476 ft | 14 kts | 82° |
| 2026-04-19 06:10 | 48.36308 | 11.81276 | 1485 ft | 12 kts | 354° |
| 2026-04-19 06:11 | 48.36397 | 11.81227 | 1482 ft | 15 kts | 318° |
| 2026-04-19 06:11 | 48.36446 | 11.81087 | 1475 ft | 16 kts | 292° |
| 2026-04-19 06:11 | 48.36491 | 11.80929 | 1481 ft | 17 kts | 294° |
| 2026-04-19 06:12 | 48.36552 | 11.80292 | 1475 ft | 62 kts | 263° |
| 2026-04-19 06:12 | 48.36472 | 11.79303 | 1485 ft | 125 kts | 263° |
| 2026-04-19 06:12 | 48.36394 | 11.78306 | 1476 ft | 158 kts | 263° |
| 2026-04-19 06:12 | 48.36253 | 11.76644 | 2110 ft | 158 kts | 262° |
| 2026-04-19 06:13 | 48.36127 | 11.75005 | 2839 ft | 158 kts | 263° |
| 2026-04-19 06:13 | 48.36000 | 11.73282 | 3209 ft | 176 kts | 263° |
| 2026-04-19 06:13 | 48.35854 | 11.71344 | 3444 ft | 198 kts | 263° |
| 2026-04-19 06:13 | 48.35708 | 11.69191 | 3799 ft | 216 kts | 269° |
| 2026-04-19 06:14 | 48.36084 | 11.66969 | 4417 ft | 228 kts | 296° |
| 2026-04-19 06:14 | 48.36928 | 11.64886 | 5021 ft | 241 kts | 298° |
| 2026-04-19 06:14 | 48.37843 | 11.62665 | 5588 ft | 255 kts | 299° |
| 2026-04-19 06:14 | 48.38788 | 11.60372 | 6418 ft | 260 kts | 299° |
| 2026-04-19 06:15 | 48.39745 | 11.58040 | 7228 ft | 264 kts | 299° |
| 2026-04-19 06:15 | 48.40712 | 11.55680 | 8065 ft | 266 kts | 299° |
| 2026-04-19 06:15 | 48.41684 | 11.53303 | 8912 ft | 268 kts | 299° |
| 2026-04-19 06:15 | 48.42663 | 11.50897 | 9767 ft | 270 kts | 299° |
| 2026-04-19 06:16 | 48.43647 | 11.48472 | 10531 ft | 273 kts | 299° |
| 2026-04-19 06:16 | 48.44680 | 11.46052 | 11274 ft | 278 kts | 306° |
| 2026-04-19 06:16 | 48.46092 | 11.44022 | 11995 ft | 286 kts | 322° |
| 2026-04-19 06:16 | 48.47915 | 11.42619 | 12372 ft | 309 kts | 339° |
| 2026-04-19 06:17 | 48.50109 | 11.41917 | 12541 ft | 335 kts | 346° |
| 2026-04-19 06:17 | 48.52471 | 11.41283 | 12793 ft | 352 kts | 346° |
| 2026-04-19 06:17 | 48.54909 | 11.40629 | 13360 ft | 359 kts | 346° |
| 2026-04-19 06:17 | 48.57382 | 11.39964 | 14010 ft | 363 kts | 346° |
| 2026-04-19 06:18 | 48.59881 | 11.39291 | 14615 ft | 366 kts | 346° |
| 2026-04-19 06:18 | 48.62400 | 11.38607 | 15218 ft | 369 kts | 346° |
| 2026-04-19 06:18 | 48.64940 | 11.37914 | 15812 ft | 372 kts | 346° |
| 2026-04-19 06:18 | 48.67497 | 11.37204 | 16400 ft | 375 kts | 344° |
| 2026-04-19 06:19 | 48.69992 | 11.36080 | 16950 ft | 374 kts | 334° |
| 2026-04-19 06:19 | 48.72303 | 11.34281 | 17498 ft | 374 kts | 323° |
| 2026-04-19 06:19 | 48.74470 | 11.32086 | 18054 ft | 376 kts | 322° |
| 2026-04-19 06:19 | 48.76652 | 11.29870 | 18592 ft | 379 kts | 322° |
| 2026-04-19 06:20 | 48.78849 | 11.27641 | 19081 ft | 381 kts | 322° |
| 2026-04-19 06:20 | 48.81064 | 11.25392 | 19559 ft | 384 kts | 322° |
| 2026-04-19 06:20 | 48.83293 | 11.23132 | 20045 ft | 387 kts | 322° |
| 2026-04-19 06:20 | 48.85417 | 11.20644 | 20518 ft | 386 kts | 314° |
| 2026-04-19 06:21 | 48.87403 | 11.17886 | 20987 ft | 388 kts | 314° |
| 2026-04-19 06:21 | 48.89374 | 11.15143 | 21468 ft | 391 kts | 314° |
| 2026-04-19 06:21 | 48.91383 | 11.12345 | 21925 ft | 393 kts | 314° |
| 2026-04-19 06:21 | 48.93403 | 11.09525 | 22374 ft | 396 kts | 313° |
| 2026-04-19 06:22 | 48.95434 | 11.06682 | 22819 ft | 398 kts | 313° |
| 2026-04-19 06:22 | 48.97478 | 11.03822 | 23259 ft | 401 kts | 313° |
| 2026-04-19 06:22 | 48.99535 | 11.00935 | 23650 ft | 404 kts | 313° |
| 2026-04-19 06:22 | 49.01606 | 10.98021 | 23965 ft | 407 kts | 313° |
| 2026-04-19 06:23 | 49.03691 | 10.95088 | 24055 ft | 411 kts | 313° |
| 2026-04-19 06:23 | 49.05799 | 10.92124 | 24068 ft | 413 kts | 313° |
| 2026-04-19 06:23 | 49.07913 | 10.89149 | 24068 ft | 414 kts | 313° |
| 2026-04-19 06:23 | 49.10029 | 10.86168 | 24068 ft | 414 kts | 313° |
| 2026-04-19 06:24 | 49.12172 | 10.83143 | 24075 ft | 414 kts | 313° |
| 2026-04-19 06:24 | 49.14285 | 10.80156 | 24073 ft | 414 kts | 312° |
| 2026-04-19 06:24 | 49.16397 | 10.77163 | 24073 ft | 414 kts | 312° |
| 2026-04-19 06:24 | 49.18509 | 10.74168 | 24073 ft | 414 kts | 312° |
| 2026-04-19 06:25 | 49.20583 | 10.71194 | 24068 ft | 414 kts | 311° |
| 2026-04-19 06:25 | 49.22652 | 10.68065 | 24068 ft | 413 kts | 310° |
| 2026-04-19 06:25 | 49.24625 | 10.64952 | 24062 ft | 413 kts | 309° |
| 2026-04-19 06:25 | 49.26599 | 10.61769 | 24084 ft | 412 kts | 308° |
| 2026-04-19 06:26 | 49.28569 | 10.58576 | 24086 ft | 412 kts | 308° |
| 2026-04-19 06:26 | 49.30544 | 10.55396 | 24078 ft | 412 kts | 309° |
| 2026-04-19 06:26 | 49.32530 | 10.52223 | 23831 ft | 412 kts | 309° |
| 2026-04-19 06:26 | 49.34537 | 10.49039 | 23419 ft | 409 kts | 309° |
| 2026-04-19 06:27 | 49.36426 | 10.45814 | 22957 ft | 403 kts | 303° |
| 2026-04-19 06:27 | 49.38020 | 10.42386 | 22521 ft | 399 kts | 301° |
| 2026-04-19 06:27 | 49.39609 | 10.38915 | 22091 ft | 396 kts | 301° |
| 2026-04-19 06:27 | 49.41209 | 10.35414 | 21661 ft | 394 kts | 301° |
| 2026-04-19 06:28 | 49.42776 | 10.31979 | 21238 ft | 392 kts | 301° |
| 2026-04-19 06:28 | 49.44334 | 10.28562 | 20846 ft | 389 kts | 301° |
| 2026-04-19 06:28 | 49.45882 | 10.25164 | 20438 ft | 387 kts | 301° |
| 2026-04-19 06:28 | 49.47419 | 10.21783 | 20038 ft | 385 kts | 301° |
| 2026-04-19 06:29 | 49.48948 | 10.18413 | 19636 ft | 383 kts | 301° |
| 2026-04-19 06:29 | 49.50463 | 10.15056 | 19254 ft | 381 kts | 301° |
| 2026-04-19 06:29 | 49.51971 | 10.11717 | 18863 ft | 380 kts | 301° |
| 2026-04-19 06:29 | 49.53475 | 10.08388 | 18496 ft | 378 kts | 301° |
| 2026-04-19 06:30 | 49.54975 | 10.05062 | 18100 ft | 377 kts | 301° |
| 2026-04-19 06:30 | 49.56468 | 10.01747 | 17659 ft | 375 kts | 301° |
| 2026-04-19 06:30 | 49.57951 | 9.98451 | 17230 ft | 373 kts | 301° |
| 2026-04-19 06:30 | 49.59425 | 9.95176 | 16804 ft | 371 kts | 301° |
| 2026-04-19 06:31 | 49.60888 | 9.91921 | 16413 ft | 368 kts | 301° |
| 2026-04-19 06:31 | 49.62341 | 9.88687 | 16009 ft | 365 kts | 301° |
| 2026-04-19 06:31 | 49.63783 | 9.85474 | 15602 ft | 363 kts | 301° |
| 2026-04-19 06:31 | 49.65212 | 9.82281 | 15201 ft | 361 kts | 301° |
| 2026-04-19 06:32 | 49.66632 | 9.79106 | 14808 ft | 358 kts | 301° |
| 2026-04-19 06:32 | 49.68044 | 9.75947 | 14425 ft | 356 kts | 301° |
| 2026-04-19 06:32 | 49.69442 | 9.72811 | 14037 ft | 354 kts | 301° |
| 2026-04-19 06:32 | 49.70831 | 9.69689 | 13628 ft | 352 kts | 301° |
| 2026-04-19 06:33 | 49.72210 | 9.66582 | 13198 ft | 349 kts | 301° |
| 2026-04-19 06:33 | 49.73579 | 9.63496 | 12775 ft | 347 kts | 301° |
| 2026-04-19 06:33 | 49.74936 | 9.60429 | 12373 ft | 345 kts | 301° |
| 2026-04-19 06:33 | 49.76285 | 9.57383 | 11954 ft | 342 kts | 301° |
| 2026-04-19 06:34 | 49.77627 | 9.54356 | 11548 ft | 340 kts | 301° |
| 2026-04-19 06:34 | 49.78957 | 9.51348 | 11167 ft | 335 kts | 301° |
| 2026-04-19 06:34 | 49.80242 | 9.48442 | 11081 ft | 319 kts | 301° |
| 2026-04-19 06:34 | 49.81466 | 9.45675 | 11099 ft | 305 kts | 301° |
| 2026-04-19 06:35 | 49.82633 | 9.43025 | 11085 ft | 293 kts | 301° |
| 2026-04-19 06:35 | 49.83771 | 9.40438 | 10829 ft | 288 kts | 300° |
| 2026-04-19 06:35 | 49.84886 | 9.37898 | 10592 ft | 282 kts | 300° |
| 2026-04-19 06:35 | 49.85916 | 9.35363 | 10341 ft | 274 kts | 294° |
| 2026-04-19 06:36 | 49.86646 | 9.32681 | 10097 ft | 266 kts | 285° |
| 2026-04-19 06:36 | 49.87164 | 9.29958 | 9842 ft | 262 kts | 284° |
| 2026-04-19 06:36 | 49.87679 | 9.27266 | 9565 ft | 259 kts | 284° |
| 2026-04-19 06:36 | 49.88192 | 9.24589 | 9271 ft | 258 kts | 284° |
| 2026-04-19 06:37 | 49.88704 | 9.21925 | 8982 ft | 258 kts | 284° |
| 2026-04-19 06:37 | 49.89212 | 9.19265 | 8692 ft | 257 kts | 284° |
| 2026-04-19 06:37 | 49.89715 | 9.16618 | 8411 ft | 256 kts | 284° |
| 2026-04-19 06:37 | 49.90216 | 9.13979 | 8128 ft | 254 kts | 284° |
| 2026-04-19 06:38 | 49.90715 | 9.11352 | 7848 ft | 253 kts | 285° |
| 2026-04-19 06:38 | 49.91212 | 9.08737 | 7567 ft | 253 kts | 285° |
| 2026-04-19 06:38 | 49.91705 | 9.06123 | 7292 ft | 252 kts | 285° |
| 2026-04-19 06:38 | 49.92198 | 9.03511 | 7028 ft | 252 kts | 285° |
| 2026-04-19 06:39 | 49.92690 | 9.00902 | 6753 ft | 252 kts | 286° |
| 2026-04-19 06:39 | 49.93180 | 8.98304 | 6483 ft | 251 kts | 286° |
| 2026-04-19 06:39 | 49.93669 | 8.95707 | 6195 ft | 250 kts | 286° |
| 2026-04-19 06:39 | 49.94158 | 8.93115 | 5909 ft | 250 kts | 287° |
| 2026-04-19 06:40 | 49.94891 | 8.90687 | 5625 ft | 250 kts | 306° |
| 2026-04-19 06:40 | 49.96151 | 8.88842 | 5345 ft | 252 kts | 326° |
| 2026-04-19 06:40 | 49.97775 | 8.87812 | 5065 ft | 255 kts | 346° |
| 2026-04-19 06:40 | 49.99556 | 8.87766 | 4784 ft | 260 kts | 7° |
| 2026-04-19 06:41 | 50.01247 | 8.88778 | 4495 ft | 264 kts | 29° |
| 2026-04-19 06:41 | 50.02584 | 8.90753 | 4207 ft | 269 kts | 52° |
| 2026-04-19 06:41 | 50.03365 | 8.93397 | 4024 ft | 271 kts | 67° |
| 2026-04-19 06:41 | 50.03988 | 8.96159 | 4006 ft | 271 kts | 67° |
| 2026-04-19 06:42 | 50.04606 | 8.98928 | 4009 ft | 271 kts | 66° |
| 2026-04-19 06:42 | 50.05492 | 9.01443 | 4007 ft | 262 kts | 42° |
| 2026-04-19 06:42 | 50.06973 | 9.02952 | 4014 ft | 252 kts | 13° |
| 2026-04-19 06:42 | 50.08665 | 9.03097 | 4004 ft | 241 kts | 344° |
| 2026-04-19 06:43 | 50.10085 | 9.01905 | 4001 ft | 226 kts | 314° |
| 2026-04-19 06:43 | 50.10808 | 8.99854 | 4002 ft | 214 kts | 289° |
| 2026-04-19 06:43 | 50.11131 | 8.97627 | 4003 ft | 205 kts | 284° |
| 2026-04-19 06:43 | 50.11381 | 8.95518 | 4001 ft | 191 kts | 284° |
| 2026-04-19 06:44 | 50.11595 | 8.93572 | 4019 ft | 174 kts | 284° |
| 2026-04-19 06:44 | 50.11731 | 8.91765 | 4009 ft | 166 kts | 272° |
| 2026-04-19 06:44 | 50.11426 | 8.90014 | 4007 ft | 170 kts | 257° |
| 2026-04-19 06:44 | 50.11013 | 8.88274 | 4009 ft | 172 kts | 256° |
| 2026-04-19 06:45 | 50.10600 | 8.86530 | 4003 ft | 172 kts | 257° |
| 2026-04-19 06:45 | 50.10189 | 8.84789 | 3878 ft | 170 kts | 257° |
| 2026-04-19 06:45 | 50.09783 | 8.83063 | 3667 ft | 169 kts | 258° |
| 2026-04-19 06:45 | 50.09377 | 8.81340 | 3474 ft | 170 kts | 258° |
| 2026-04-19 06:46 | 50.08968 | 8.79601 | 3250 ft | 172 kts | 258° |
| 2026-04-19 06:46 | 50.08555 | 8.77851 | 3000 ft | 172 kts | 257° |
| 2026-04-19 06:46 | 50.08141 | 8.76099 | 2786 ft | 172 kts | 257° |
| 2026-04-19 06:46 | 50.07729 | 8.74359 | 2562 ft | 172 kts | 257° |
| 2026-04-19 06:47 | 50.07315 | 8.72608 | 2307 ft | 172 kts | 257° |
| 2026-04-19 06:47 | 50.06906 | 8.70885 | 2063 ft | 164 kts | 256° |
| 2026-04-19 06:47 | 50.06526 | 8.69287 | 1843 ft | 151 kts | 257° |
| 2026-04-19 06:47 | 50.06169 | 8.67777 | 1647 ft | 148 kts | 257° |
| 2026-04-19 06:48 | 50.05813 | 8.66274 | 1441 ft | 147 kts | 255° |
| 2026-04-19 06:48 | 50.05464 | 8.64803 | 1240 ft | 143 kts | 255° |
| 2026-04-19 06:48 | 50.05119 | 8.63351 | 1043 ft | 143 kts | 256° |
| 2026-04-19 06:48 | 50.04777 | 8.61909 | 852 ft | 142 kts | 252° |
| 2026-04-19 06:49 | 50.04436 | 8.60476 | 658 ft | 141 kts | 252° |
| 2026-04-19 06:49 | 50.04098 | 8.59056 | 475 ft | 139 kts | 252° |
| 2026-04-19 06:49 | 50.03769 | 8.57673 | 363 ft | 126 kts | 250° |
| 2026-04-19 06:49 | 50.03520 | 8.56629 | 360 ft | 78 kts | 250° |
| 2026-04-19 06:50 | 50.03389 | 8.56080 | 356 ft | 36 kts | 249° |
| 2026-04-19 06:50 | 50.03317 | 8.55730 | 353 ft | 30 kts | 260° |
| 2026-04-19 06:50 | 50.03322 | 8.55425 | 347 ft | 27 kts | 279° |
| 2026-04-19 06:50 | 50.03353 | 8.55156 | 344 ft | 24 kts | 280° |
| 2026-04-19 06:51 | 50.03359 | 8.54914 | 349 ft | 22 kts | 253° |
| 2026-04-19 06:51 | 50.03306 | 8.54692 | 335 ft | 22 kts | 249° |
| 2026-04-19 06:51 | 50.03292 | 8.54504 | 335 ft | 16 kts | 312° |
| 2026-04-19 06:51 | 50.03390 | 8.54436 | 339 ft | 18 kts | 339° |
| 2026-04-19 06:52 | 50.03467 | 8.54391 | 349 ft | 18 kts | 340° |
| 2026-04-19 06:52 | 50.03583 | 8.54326 | 339 ft | 17 kts | 340° |
| 2026-04-19 06:52 | 50.03672 | 8.54376 | 345 ft | 16 kts | 66° |
| 2026-04-19 06:52 | 50.03716 | 8.54558 | 351 ft | 17 kts | 69° |
| 2026-04-19 06:53 | 50.03754 | 8.54720 | 353 ft | 19 kts | 70° |
| 2026-04-19 06:53 | 50.03816 | 8.54980 | 356 ft | 27 kts | 69° |
| 2026-04-19 06:53 | 50.03882 | 8.55255 | 356 ft | 27 kts | 69° |
| 2026-04-19 06:53 | 50.03950 | 8.55537 | 356 ft | 28 kts | 69° |
| 2026-04-19 06:54 | 50.04021 | 8.55830 | 352 ft | 29 kts | 70° |
| 2026-04-19 06:54 | 50.04081 | 8.56090 | 359 ft | 18 kts | 70° |
| 2026-04-19 06:54 | 50.04124 | 8.56266 | 356 ft | 17 kts | 69° |
| 2026-04-19 06:54 | 50.04160 | 8.56417 | 357 ft | 13 kts | 70° |
| 2026-04-19 06:55 | 50.04197 | 8.56579 | 362 ft | 20 kts | 71° |
| 2026-04-19 06:55 | 50.04239 | 8.56758 | 358 ft | 14 kts | 62° |
| 2026-04-19 06:55 | 50.04326 | 8.56818 | 363 ft | 16 kts | 12° |
| 2026-04-19 06:55 | 50.04447 | 8.56854 | 363 ft | 19 kts | 9° |
| 2026-04-19 06:56 | 50.04568 | 8.56896 | 358 ft | 17 kts | 13° |
| 2026-04-19 06:56 | 50.04675 | 8.56950 | 359 ft | 14 kts | 24° |
| 2026-04-19 06:56 | 50.04747 | 8.57001 | 364 ft | 7 kts | 20° |
| 2026-04-19 06:56 | 50.04789 | 8.56960 | 365 ft | 5 kts | 296° |
| 2026-04-19 06:57 | 50.04800 | 8.56925 | 360 ft | 2 kts | 294° |
| 2026-04-19 06:57 | 50.04802 | 8.56916 | 361 ft | 0 kts | 294° |